Scottsboro, Alabama
Current Conditions -  °F | °C
As of 6:55 AM on Friday 19 Dec 2014 (Local Time) from K4A6 Reporting Station
Clear Clear  
Wind Chill: 23°   Ceiling: Unl
Heat Index: 28°   Visibility: 8mi
Dew Point: 28°   Wind: 5mph
Humidity: 100%   Direction: 50°NE
Pressure: 30.23"   Gusts: NA
Location:  34.68°N, 86.08°W
Report Text: K4A6 191255Z AUTO 05004KT 8SM CLR M02/M02 A3023 RMK AO2
Loading
Personal Weather Stations






























Interactive Weather Map New forecast layout! Learn more

10-Day Weather Forecast

Advertisements
Track Severe Weather on mobile